sensor_id;sensor_type;location;lat;lon;timestamp;temperature;humidity
19389;DHT22;9830;41.876;23.474;2024-03-22T00:01:14;1.20;99.90
19389;DHT22;9830;41.876;23.474;2024-03-22T00:03:40;1.20;99.90
19389;DHT22;9830;41.876;23.474;2024-03-22T00:06:06;1.10;99.90
19389;DHT22;9830;41.876;23.474;2024-03-22T00:08:31;0.90;99.90
19389;DHT22;9830;41.876;23.474;2024-03-22T00:10:57;0.80;99.90
19389;DHT22;9830;41.876;23.474;2024-03-22T00:13:23;0.80;99.90
19389;DHT22;9830;41.876;23.474;2024-03-22T00:15:49;0.70;99.90
19389;DHT22;9830;41.876;23.474;2024-03-22T00:18:15;0.50;99.90
19389;DHT22;9830;41.876;23.474;2024-03-22T00:20:41;0.40;99.90
19389;DHT22;9830;41.876;23.474;2024-03-22T00:23:07;0.30;99.90
19389;DHT22;9830;41.876;23.474;2024-03-22T00:25:32;0.10;99.90
19389;DHT22;9830;41.876;23.474;2024-03-22T00:27:58;0.20;99.90
19389;DHT22;9830;41.876;23.474;2024-03-22T00:30:24;0.20;99.90
19389;DHT22;9830;41.876;23.474;2024-03-22T00:32:49;0.20;99.90
19389;DHT22;9830;41.876;23.474;2024-03-22T00:35:15;0.10;99.90
19389;DHT22;9830;41.876;23.474;2024-03-22T00:37:41;0.20;99.90
19389;DHT22;9830;41.876;23.474;2024-03-22T00:40:07;0.20;99.90
19389;DHT22;9830;41.876;23.474;2024-03-22T00:42:33;0.20;99.90
19389;DHT22;9830;41.876;23.474;2024-03-22T00:44:58;0.10;99.90
19389;DHT22;9830;41.876;23.474;2024-03-22T00:47:24;0.10;99.90
19389;DHT22;9830;41.876;23.474;2024-03-22T00:49:50;0.10;99.90
19389;DHT22;9830;41.876;23.474;2024-03-22T00:52:16;-0.10;99.90
19389;DHT22;9830;41.876;23.474;2024-03-22T00:54:41;0.00;99.90
19389;DHT22;9830;41.876;23.474;2024-03-22T00:57:08;0.00;99.90
19389;DHT22;9830;41.876;23.474;2024-03-22T00:59:34;-0.10;99.90
19389;DHT22;9830;41.876;23.474;2024-03-22T01:02:00;-0.20;99.90
19389;DHT22;9830;41.876;23.474;2024-03-22T01:04:25;-0.10;99.90
19389;DHT22;9830;41.876;23.474;2024-03-22T01:06:51;-0.10;99.90
19389;DHT22;9830;41.876;23.474;2024-03-22T01:09:17;-0.20;99.90
19389;DHT22;9830;41.876;23.474;2024-03-22T01:11:42;-0.20;99.90
19389;DHT22;9830;41.876;23.474;2024-03-22T01:14:08;-0.30;99.90
19389;DHT22;9830;41.876;23.474;2024-03-22T01:16:34;-0.30;99.90
19389;DHT22;9830;41.876;23.474;2024-03-22T01:18:59;-0.30;99.90
19389;DHT22;9830;41.876;23.474;2024-03-22T01:21:25;-0.30;99.90
19389;DHT22;9830;41.876;23.474;2024-03-22T01:23:54;-0.30;99.90
19389;DHT22;9830;41.876;23.474;2024-03-22T01:26:19;-0.30;99.90
19389;DHT22;9830;41.876;23.474;2024-03-22T01:28:46;-0.30;99.90
19389;DHT22;9830;41.876;23.474;2024-03-22T01:31:12;-0.40;99.90
19389;DHT22;9830;41.876;23.474;2024-03-22T01:33:37;-0.40;99.90
19389;DHT22;9830;41.876;23.474;2024-03-22T01:36:03;-0.40;99.90
19389;DHT22;9830;41.876;23.474;2024-03-22T01:38:31;-0.40;99.90
19389;DHT22;9830;41.876;23.474;2024-03-22T01:40:56;-0.60;99.90
19389;DHT22;9830;41.876;23.474;2024-03-22T01:43:22;-0.60;99.90
19389;DHT22;9830;41.876;23.474;2024-03-22T01:45:48;-0.80;99.90
19389;DHT22;9830;41.876;23.474;2024-03-22T01:48:14;-0.90;99.90
19389;DHT22;9830;41.876;23.474;2024-03-22T01:50:39;-0.90;99.90
19389;DHT22;9830;41.876;23.474;2024-03-22T01:53:06;-0.90;99.90
19389;DHT22;9830;41.876;23.474;2024-03-22T01:55:31;-0.90;99.90
19389;DHT22;9830;41.876;23.474;2024-03-22T01:57:57;-0.90;99.90
19389;DHT22;9830;41.876;23.474;2024-03-22T02:00:23;-1.00;99.90
19389;DHT22;9830;41.876;23.474;2024-03-22T02:02:49;-1.00;99.90
19389;DHT22;9830;41.876;23.474;2024-03-22T02:05:16;-1.00;99.90
19389;DHT22;9830;41.876;23.474;2024-03-22T02:07:45;-1.10;99.90
19389;DHT22;9830;41.876;23.474;2024-03-22T02:10:11;-1.20;99.90
19389;DHT22;9830;41.876;23.474;2024-03-22T02:12:38;-1.20;99.90
19389;DHT22;9830;41.876;23.474;2024-03-22T02:15:04;-1.10;99.90
19389;DHT22;9830;41.876;23.474;2024-03-22T02:17:32;-1.20;99.90
19389;DHT22;9830;41.876;23.474;2024-03-22T02:19:58;-1.20;99.90
19389;DHT22;9830;41.876;23.474;2024-03-22T02:22:24;-1.20;99.90
19389;DHT22;9830;41.876;23.474;2024-03-22T02:24:49;-1.20;99.90
19389;DHT22;9830;41.876;23.474;2024-03-22T02:27:15;-1.30;99.90
19389;DHT22;9830;41.876;23.474;2024-03-22T02:29:41;-1.30;99.90
19389;DHT22;9830;41.876;23.474;2024-03-22T02:32:07;-1.40;99.90
19389;DHT22;9830;41.876;23.474;2024-03-22T02:34:32;-1.50;99.90
19389;DHT22;9830;41.876;23.474;2024-03-22T02:36:58;-1.50;99.90
19389;DHT22;9830;41.876;23.474;2024-03-22T02:39:24;-1.50;99.90
19389;DHT22;9830;41.876;23.474;2024-03-22T02:41:51;-1.60;99.90
19389;DHT22;9830;41.876;23.474;2024-03-22T02:44:16;-1.60;99.90
19389;DHT22;9830;41.876;23.474;2024-03-22T02:46:42;-1.60;99.90
19389;DHT22;9830;41.876;23.474;2024-03-22T02:49:07;-1.50;99.90
19389;DHT22;9830;41.876;23.474;2024-03-22T02:51:33;-1.60;99.90
19389;DHT22;9830;41.876;23.474;2024-03-22T02:53:59;-1.70;99.90
19389;DHT22;9830;41.876;23.474;2024-03-22T02:56:24;-1.80;99.90
19389;DHT22;9830;41.876;23.474;2024-03-22T02:58:50;-1.80;99.90
19389;DHT22;9830;41.876;23.474;2024-03-22T03:01:16;-1.80;99.90
19389;DHT22;9830;41.876;23.474;2024-03-22T03:03:41;-1.70;99.90
19389;DHT22;9830;41.876;23.474;2024-03-22T03:06:07;-1.80;99.90
19389;DHT22;9830;41.876;23.474;2024-03-22T03:08:34;-1.80;99.90
19389;DHT22;9830;41.876;23.474;2024-03-22T03:10:59;-1.80;99.90
19389;DHT22;9830;41.876;23.474;2024-03-22T03:13:25;-1.90;99.90
19389;DHT22;9830;41.876;23.474;2024-03-22T03:15:51;-2.00;99.90
19389;DHT22;9830;41.876;23.474;2024-03-22T03:18:17;-2.10;99.90
19389;DHT22;9830;41.876;23.474;2024-03-22T03:20:43;-2.00;99.90
19389;DHT22;9830;41.876;23.474;2024-03-22T03:23:09;-1.90;99.90
19389;DHT22;9830;41.876;23.474;2024-03-22T03:25:34;-2.00;99.90
19389;DHT22;9830;41.876;23.474;2024-03-22T03:28:00;-1.90;99.90
19389;DHT22;9830;41.876;23.474;2024-03-22T03:30:25;-2.00;99.90
19389;DHT22;9830;41.876;23.474;2024-03-22T03:32:51;-2.10;99.90
19389;DHT22;9830;41.876;23.474;2024-03-22T03:35:17;-2.10;99.90
19389;DHT22;9830;41.876;23.474;2024-03-22T03:37:42;-2.20;99.90
19389;DHT22;9830;41.876;23.474;2024-03-22T03:40:08;-2.10;99.90
19389;DHT22;9830;41.876;23.474;2024-03-22T03:42:34;-2.00;99.90
19389;DHT22;9830;41.876;23.474;2024-03-22T03:45:00;-2.10;99.90
19389;DHT22;9830;41.876;23.474;2024-03-22T03:47:25;-2.00;99.90
19389;DHT22;9830;41.876;23.474;2024-03-22T03:49:51;-2.00;99.90
19389;DHT22;9830;41.876;23.474;2024-03-22T03:52:17;-1.90;99.90
19389;DHT22;9830;41.876;23.474;2024-03-22T03:54:43;-1.80;99.90
19389;DHT22;9830;41.876;23.474;2024-03-22T03:57:09;-1.80;99.90
19389;DHT22;9830;41.876;23.474;2024-03-22T03:59:34;-1.90;99.90
19389;DHT22;9830;41.876;23.474;2024-03-22T04:02:00;-1.80;99.90
19389;DHT22;9830;41.876;23.474;2024-03-22T04:04:26;-1.80;99.90
19389;DHT22;9830;41.876;23.474;2024-03-22T04:06:52;-2.00;99.90
19389;DHT22;9830;41.876;23.474;2024-03-22T04:09:17;-1.90;99.90
19389;DHT22;9830;41.876;23.474;2024-03-22T04:11:43;-2.00;99.90
19389;DHT22;9830;41.876;23.474;2024-03-22T04:14:09;-2.10;99.90
19389;DHT22;9830;41.876;23.474;2024-03-22T04:16:35;-2.00;99.90
19389;DHT22;9830;41.876;23.474;2024-03-22T04:19:00;-2.00;99.90
19389;DHT22;9830;41.876;23.474;2024-03-22T04:21:26;-2.00;99.90
19389;DHT22;9830;41.876;23.474;2024-03-22T04:23:52;-2.00;99.90
19389;DHT22;9830;41.876;23.474;2024-03-22T04:26:17;-2.00;99.90
19389;DHT22;9830;41.876;23.474;2024-03-22T04:28:43;-1.90;99.90
19389;DHT22;9830;41.876;23.474;2024-03-22T04:31:09;-1.90;99.90
19389;DHT22;9830;41.876;23.474;2024-03-22T04:33:36;-1.90;99.90
19389;DHT22;9830;41.876;23.474;2024-03-22T04:36:03;-2.00;99.90
19389;DHT22;9830;41.876;23.474;2024-03-22T04:38:29;-1.90;99.90
19389;DHT22;9830;41.876;23.474;2024-03-22T04:40:56;-1.90;99.90
19389;DHT22;9830;41.876;23.474;2024-03-22T04:43:23;-1.80;99.90
19389;DHT22;9830;41.876;23.474;2024-03-22T04:45:50;-1.70;99.90
19389;DHT22;9830;41.876;23.474;2024-03-22T04:48:23;-1.40;99.90
19389;DHT22;9830;41.876;23.474;2024-03-22T04:50:53;-0.80;99.90
19389;DHT22;9830;41.876;23.474;2024-03-22T04:53:21;-0.40;99.90
19389;DHT22;9830;41.876;23.474;2024-03-22T04:55:48;0.20;99.90
19389;DHT22;9830;41.876;23.474;2024-03-22T04:58:15;0.90;99.90
19389;DHT22;9830;41.876;23.474;2024-03-22T05:00:41;1.40;99.90
19389;DHT22;9830;41.876;23.474;2024-03-22T05:03:07;2.30;99.90
19389;DHT22;9830;41.876;23.474;2024-03-22T05:05:34;3.10;99.90
19389;DHT22;9830;41.876;23.474;2024-03-22T05:08:00;4.50;99.90
19389;DHT22;9830;41.876;23.474;2024-03-22T05:10:27;4.60;99.90
19389;DHT22;9830;41.876;23.474;2024-03-22T05:12:54;5.30;99.90
19389;DHT22;9830;41.876;23.474;2024-03-22T05:15:20;5.50;96.70
19389;DHT22;9830;41.876;23.474;2024-03-22T05:17:46;5.80;98.90
19389;DHT22;9830;41.876;23.474;2024-03-22T05:20:11;6.50;94.30
19389;DHT22;9830;41.876;23.474;2024-03-22T05:22:38;6.60;92.60
19389;DHT22;9830;41.876;23.474;2024-03-22T05:25:04;7.10;88.30
19389;DHT22;9830;41.876;23.474;2024-03-22T05:27:34;7.10;86.00
19389;DHT22;9830;41.876;23.474;2024-03-22T05:30:00;7.10;88.00
19389;DHT22;9830;41.876;23.474;2024-03-22T05:32:26;7.30;88.70
19389;DHT22;9830;41.876;23.474;2024-03-22T05:34:52;7.80;83.00
19389;DHT22;9830;41.876;23.474;2024-03-22T05:37:18;8.80;66.30
19389;DHT22;9830;41.876;23.474;2024-03-22T05:39:44;9.20;62.70
19389;DHT22;9830;41.876;23.474;2024-03-22T05:42:10;9.40;58.90
19389;DHT22;9830;41.876;23.474;2024-03-22T05:44:35;11.10;54.60
19389;DHT22;9830;41.876;23.474;2024-03-22T05:47:01;12.10;50.70
19389;DHT22;9830;41.876;23.474;2024-03-22T05:49:27;11.80;50.60
19389;DHT22;9830;41.876;23.474;2024-03-22T05:51:53;10.90;53.70
19389;DHT22;9830;41.876;23.474;2024-03-22T05:54:18;9.90;57.70
19389;DHT22;9830;41.876;23.474;2024-03-22T05:56:45;8.70;65.60
19389;DHT22;9830;41.876;23.474;2024-03-22T05:59:11;8.20;75.20
19389;DHT22;9830;41.876;23.474;2024-03-22T06:01:37;8.50;76.10
19389;DHT22;9830;41.876;23.474;2024-03-22T06:04:04;8.80;71.70
19389;DHT22;9830;41.876;23.474;2024-03-22T06:06:34;9.10;68.30
19389;DHT22;9830;41.876;23.474;2024-03-22T06:09:00;8.80;68.70
19389;DHT22;9830;41.876;23.474;2024-03-22T06:11:32;8.80;67.70
19389;DHT22;9830;41.876;23.474;2024-03-22T06:13:57;7.70;76.60
19389;DHT22;9830;41.876;23.474;2024-03-22T06:16:23;8.30;72.90
19389;DHT22;9830;41.876;23.474;2024-03-22T06:18:49;8.30;73.00
19389;DHT22;9830;41.876;23.474;2024-03-22T06:21:14;7.90;76.80
19389;DHT22;9830;41.876;23.474;2024-03-22T06:23:40;7.30;81.80
19389;DHT22;9830;41.876;23.474;2024-03-22T06:26:07;8.30;76.90
19389;DHT22;9830;41.876;23.474;2024-03-22T06:28:32;8.80;73.20
19389;DHT22;9830;41.876;23.474;2024-03-22T06:30:58;9.00;71.60
19389;DHT22;9830;41.876;23.474;2024-03-22T06:33:24;10.00;63.30
19389;DHT22;9830;41.876;23.474;2024-03-22T06:35:50;10.40;62.20
19389;DHT22;9830;41.876;23.474;2024-03-22T06:38:15;10.70;58.20
19389;DHT22;9830;41.876;23.474;2024-03-22T06:40:41;11.10;56.30
19389;DHT22;9830;41.876;23.474;2024-03-22T06:43:07;10.20;58.50
19389;DHT22;9830;41.876;23.474;2024-03-22T06:45:34;9.90;60.90
19389;DHT22;9830;41.876;23.474;2024-03-22T06:47:59;11.10;56.20
19389;DHT22;9830;41.876;23.474;2024-03-22T06:50:25;11.30;55.70
19389;DHT22;9830;41.876;23.474;2024-03-22T06:52:51;10.80;56.90
19389;DHT22;9830;41.876;23.474;2024-03-22T06:55:22;11.50;53.40
19389;DHT22;9830;41.876;23.474;2024-03-22T06:57:49;12.40;51.70
19389;DHT22;9830;41.876;23.474;2024-03-22T07:00:16;13.10;50.00
19389;DHT22;9830;41.876;23.474;2024-03-22T07:02:42;12.30;50.60
19389;DHT22;9830;41.876;23.474;2024-03-22T07:05:08;11.80;50.40
19389;DHT22;9830;41.876;23.474;2024-03-22T07:07:35;11.60;52.00
19389;DHT22;9830;41.876;23.474;2024-03-22T07:10:05;12.40;50.60
19389;DHT22;9830;41.876;23.474;2024-03-22T07:12:33;14.10;47.40
19389;DHT22;9830;41.876;23.474;2024-03-22T07:15:00;16.20;43.90
19389;DHT22;9830;41.876;23.474;2024-03-22T07:17:27;15.50;40.50
19389;DHT22;9830;41.876;23.474;2024-03-22T07:19:53;13.80;45.10
19389;DHT22;9830;41.876;23.474;2024-03-22T07:22:19;15.60;43.20
19389;DHT22;9830;41.876;23.474;2024-03-22T07:24:46;15.00;42.20
19389;DHT22;9830;41.876;23.474;2024-03-22T07:27:13;15.70;40.10
19389;DHT22;9830;41.876;23.474;2024-03-22T07:29:40;17.20;38.90
19389;DHT22;9830;41.876;23.474;2024-03-22T07:32:06;17.50;38.70
19389;DHT22;9830;41.876;23.474;2024-03-22T07:34:32;17.50;34.40
19389;DHT22;9830;41.876;23.474;2024-03-22T07:36:58;18.10;35.40
19389;DHT22;9830;41.876;23.474;2024-03-22T07:39:24;18.30;33.80
19389;DHT22;9830;41.876;23.474;2024-03-22T07:41:50;20.50;33.30
19389;DHT22;9830;41.876;23.474;2024-03-22T07:44:16;21.90;31.40
19389;DHT22;9830;41.876;23.474;2024-03-22T07:46:53;20.90;32.20
19389;DHT22;9830;41.876;23.474;2024-03-22T07:49:19;20.90;31.20
19389;DHT22;9830;41.876;23.474;2024-03-22T07:51:45;20.70;30.10
19389;DHT22;9830;41.876;23.474;2024-03-22T07:54:10;19.30;32.50
19389;DHT22;9830;41.876;23.474;2024-03-22T07:56:36;19.00;32.40
19389;DHT22;9830;41.876;23.474;2024-03-22T07:59:02;20.60;31.40
19389;DHT22;9830;41.876;23.474;2024-03-22T08:01:27;21.80;29.50
19389;DHT22;9830;41.876;23.474;2024-03-22T08:03:53;22.50;28.30
19389;DHT22;9830;41.876;23.474;2024-03-22T08:06:19;20.40;30.20
19389;DHT22;9830;41.876;23.474;2024-03-22T08:08:45;21.10;29.30
19389;DHT22;9830;41.876;23.474;2024-03-22T08:11:11;20.00;30.00
19389;DHT22;9830;41.876;23.474;2024-03-22T08:13:36;21.50;29.00
19389;DHT22;9830;41.876;23.474;2024-03-22T08:16:02;21.00;30.40
19389;DHT22;9830;41.876;23.474;2024-03-22T08:18:28;21.00;28.20
19389;DHT22;9830;41.876;23.474;2024-03-22T08:20:54;21.20;28.90
19389;DHT22;9830;41.876;23.474;2024-03-22T08:23:20;21.90;28.60
19389;DHT22;9830;41.876;23.474;2024-03-22T08:25:48;23.20;26.50
19389;DHT22;9830;41.876;23.474;2024-03-22T08:28:14;24.60;24.50
19389;DHT22;9830;41.876;23.474;2024-03-22T08:30:39;24.90;24.00
19389;DHT22;9830;41.876;23.474;2024-03-22T08:33:05;24.50;24.40
19389;DHT22;9830;41.876;23.474;2024-03-22T08:35:31;23.40;24.60
19389;DHT22;9830;41.876;23.474;2024-03-22T08:37:57;22.90;25.00
19389;DHT22;9830;41.876;23.474;2024-03-22T08:40:24;22.40;25.80
19389;DHT22;9830;41.876;23.474;2024-03-22T08:42:50;22.70;26.10
19389;DHT22;9830;41.876;23.474;2024-03-22T08:45:15;22.50;27.00
19389;DHT22;9830;41.876;23.474;2024-03-22T08:47:42;22.20;27.30
19389;DHT22;9830;41.876;23.474;2024-03-22T08:50:08;22.80;26.80
19389;DHT22;9830;41.876;23.474;2024-03-22T08:52:34;22.40;27.10
19389;DHT22;9830;41.876;23.474;2024-03-22T08:55:01;22.90;26.50
19389;DHT22;9830;41.876;23.474;2024-03-22T08:57:27;23.50;24.90
19389;DHT22;9830;41.876;23.474;2024-03-22T08:59:54;24.40;23.70
19389;DHT22;9830;41.876;23.474;2024-03-22T09:02:20;23.90;24.60
19389;DHT22;9830;41.876;23.474;2024-03-22T09:04:46;24.00;25.40
19389;DHT22;9830;41.876;23.474;2024-03-22T09:07:12;24.20;25.20
19389;DHT22;9830;41.876;23.474;2024-03-22T09:09:38;23.40;25.50
19389;DHT22;9830;41.876;23.474;2024-03-22T09:12:03;23.40;26.30
19389;DHT22;9830;41.876;23.474;2024-03-22T09:14:29;24.40;24.50
19389;DHT22;9830;41.876;23.474;2024-03-22T09:16:55;24.60;22.50
19389;DHT22;9830;41.876;23.474;2024-03-22T09:19:20;24.00;22.70
19389;DHT22;9830;41.876;23.474;2024-03-22T09:21:46;24.10;23.60
19389;DHT22;9830;41.876;23.474;2024-03-22T09:24:12;25.10;21.90
19389;DHT22;9830;41.876;23.474;2024-03-22T09:26:38;25.70;20.70
19389;DHT22;9830;41.876;23.474;2024-03-22T09:29:04;25.90;21.10
19389;DHT22;9830;41.876;23.474;2024-03-22T09:31:30;24.40;22.00
19389;DHT22;9830;41.876;23.474;2024-03-22T09:33:56;24.20;22.10
19389;DHT22;9830;41.876;23.474;2024-03-22T09:36:22;23.70;22.00
19389;DHT22;9830;41.876;23.474;2024-03-22T09:38:47;23.80;22.10
19389;DHT22;9830;41.876;23.474;2024-03-22T09:41:14;23.70;22.20
19389;DHT22;9830;41.876;23.474;2024-03-22T09:43:41;23.30;22.40
19389;DHT22;9830;41.876;23.474;2024-03-22T09:46:10;22.20;24.10
19389;DHT22;9830;41.876;23.474;2024-03-22T09:48:38;22.50;23.80
19389;DHT22;9830;41.876;23.474;2024-03-22T09:51:04;23.40;23.90
19389;DHT22;9830;41.876;23.474;2024-03-22T09:53:31;24.20;23.60
19389;DHT22;9830;41.876;23.474;2024-03-22T09:55:59;23.70;23.10
19389;DHT22;9830;41.876;23.474;2024-03-22T09:58:27;23.90;23.80
19389;DHT22;9830;41.876;23.474;2024-03-22T10:00:53;23.50;22.70
19389;DHT22;9830;41.876;23.474;2024-03-22T10:03:26;22.70;23.20
19389;DHT22;9830;41.876;23.474;2024-03-22T10:05:51;22.60;24.10
19389;DHT22;9830;41.876;23.474;2024-03-22T10:08:17;22.20;25.10
19389;DHT22;9830;41.876;23.474;2024-03-22T10:10:43;21.30;24.60
19389;DHT22;9830;41.876;23.474;2024-03-22T10:13:09;21.60;24.90
19389;DHT22;9830;41.876;23.474;2024-03-22T10:15:34;21.10;25.20
19389;DHT22;9830;41.876;23.474;2024-03-22T10:18:00;21.10;26.80
19389;DHT22;9830;41.876;23.474;2024-03-22T10:20:26;21.30;26.70
19389;DHT22;9830;41.876;23.474;2024-03-22T10:22:58;21.00;26.40
19389;DHT22;9830;41.876;23.474;2024-03-22T10:25:28;19.80;27.70
19389;DHT22;9830;41.876;23.474;2024-03-22T10:27:55;20.10;27.70
19389;DHT22;9830;41.876;23.474;2024-03-22T10:30:22;20.30;26.60
19389;DHT22;9830;41.876;23.474;2024-03-22T10:32:49;20.80;26.50
19389;DHT22;9830;41.876;23.474;2024-03-22T10:35:15;21.10;26.20
19389;DHT22;9830;41.876;23.474;2024-03-22T10:37:42;21.50;26.50
19389;DHT22;9830;41.876;23.474;2024-03-22T10:40:08;22.20;25.60
19389;DHT22;9830;41.876;23.474;2024-03-22T10:42:42;23.00;24.80
19389;DHT22;9830;41.876;23.474;2024-03-22T10:45:09;23.30;24.90
19389;DHT22;9830;41.876;23.474;2024-03-22T10:47:37;23.20;24.40
19389;DHT22;9830;41.876;23.474;2024-03-22T10:50:10;21.60;24.90
19389;DHT22;9830;41.876;23.474;2024-03-22T10:52:49;21.20;26.00
19389;DHT22;9830;41.876;23.474;2024-03-22T10:55:25;20.30;25.90
19389;DHT22;9830;41.876;23.474;2024-03-22T10:57:58;19.90;26.90
19389;DHT22;9830;41.876;23.474;2024-03-22T11:00:33;19.70;26.70
19389;DHT22;9830;41.876;23.474;2024-03-22T11:02:59;19.60;27.10
19389;DHT22;9830;41.876;23.474;2024-03-22T11:05:26;19.00;27.10
19389;DHT22;9830;41.876;23.474;2024-03-22T11:08:04;18.60;27.50
19389;DHT22;9830;41.876;23.474;2024-03-22T11:10:34;18.60;27.80
19389;DHT22;9830;41.876;23.474;2024-03-22T11:13:04;18.80;27.20
19389;DHT22;9830;41.876;23.474;2024-03-22T11:15:30;18.70;27.90
19389;DHT22;9830;41.876;23.474;2024-03-22T11:17:59;18.50;28.30
19389;DHT22;9830;41.876;23.474;2024-03-22T11:20:28;17.60;28.20
19389;DHT22;9830;41.876;23.474;2024-03-22T11:22:56;17.40;29.00
19389;DHT22;9830;41.876;23.474;2024-03-22T11:25:22;17.60;29.00
19389;DHT22;9830;41.876;23.474;2024-03-22T11:27:47;17.70;28.80
19389;DHT22;9830;41.876;23.474;2024-03-22T11:30:14;17.90;29.30
19389;DHT22;9830;41.876;23.474;2024-03-22T11:32:40;16.70;29.60
19389;DHT22;9830;41.876;23.474;2024-03-22T11:35:12;16.10;30.70
19389;DHT22;9830;41.876;23.474;2024-03-22T11:37:42;15.80;30.20
19389;DHT22;9830;41.876;23.474;2024-03-22T11:40:11;15.70;31.10
19389;DHT22;9830;41.876;23.474;2024-03-22T11:42:43;15.70;31.80
19389;DHT22;9830;41.876;23.474;2024-03-22T11:45:11;16.50;31.40
19389;DHT22;9830;41.876;23.474;2024-03-22T11:47:37;16.30;30.70
19389;DHT22;9830;41.876;23.474;2024-03-22T11:50:03;16.50;30.80
19389;DHT22;9830;41.876;23.474;2024-03-22T11:52:29;17.00;29.90
19389;DHT22;9830;41.876;23.474;2024-03-22T11:54:55;17.20;29.70
19389;DHT22;9830;41.876;23.474;2024-03-22T11:57:22;17.30;29.20
19389;DHT22;9830;41.876;23.474;2024-03-22T11:59:48;17.30;29.50
19389;DHT22;9830;41.876;23.474;2024-03-22T12:02:14;17.40;29.90
19389;DHT22;9830;41.876;23.474;2024-03-22T12:04:45;17.20;29.70
19389;DHT22;9830;41.876;23.474;2024-03-22T12:07:14;16.80;30.00
19389;DHT22;9830;41.876;23.474;2024-03-22T12:09:41;17.30;30.00
19389;DHT22;9830;41.876;23.474;2024-03-22T12:12:08;18.50;29.30
19389;DHT22;9830;41.876;23.474;2024-03-22T12:14:35;18.50;29.20
19389;DHT22;9830;41.876;23.474;2024-03-22T12:17:02;18.20;29.20
19389;DHT22;9830;41.876;23.474;2024-03-22T12:19:28;17.60;29.40
19389;DHT22;9830;41.876;23.474;2024-03-22T12:21:54;17.00;29.70
19389;DHT22;9830;41.876;23.474;2024-03-22T12:24:20;16.60;30.90
19389;DHT22;9830;41.876;23.474;2024-03-22T12:26:46;16.70;30.80
19389;DHT22;9830;41.876;23.474;2024-03-22T12:29:12;16.30;32.40
19389;DHT22;9830;41.876;23.474;2024-03-22T12:31:38;16.40;31.80
19389;DHT22;9830;41.876;23.474;2024-03-22T12:34:04;16.10;32.30
19389;DHT22;9830;41.876;23.474;2024-03-22T12:36:30;15.90;33.20
19389;DHT22;9830;41.876;23.474;2024-03-22T12:38:55;15.80;32.90
19389;DHT22;9830;41.876;23.474;2024-03-22T12:41:21;16.20;32.50
19389;DHT22;9830;41.876;23.474;2024-03-22T12:43:47;16.40;33.60
19389;DHT22;9830;41.876;23.474;2024-03-22T12:46:12;16.40;33.30
19389;DHT22;9830;41.876;23.474;2024-03-22T12:48:38;16.30;32.60
19389;DHT22;9830;41.876;23.474;2024-03-22T12:51:04;16.50;33.40
19389;DHT22;9830;41.876;23.474;2024-03-22T12:53:29;16.30;32.60
19389;DHT22;9830;41.876;23.474;2024-03-22T12:55:55;15.90;33.10
19389;DHT22;9830;41.876;23.474;2024-03-22T12:58:21;15.90;33.40
19389;DHT22;9830;41.876;23.474;2024-03-22T13:00:46;15.90;34.50
19389;DHT22;9830;41.876;23.474;2024-03-22T13:03:12;16.10;34.40
19389;DHT22;9830;41.876;23.474;2024-03-22T13:05:40;16.10;34.20
19389;DHT22;9830;41.876;23.474;2024-03-22T13:08:06;16.30;33.50
19389;DHT22;9830;41.876;23.474;2024-03-22T13:10:32;16.20;33.20
19389;DHT22;9830;41.876;23.474;2024-03-22T13:12:58;16.20;33.10
19389;DHT22;9830;41.876;23.474;2024-03-22T13:15:24;16.60;33.60
19389;DHT22;9830;41.876;23.474;2024-03-22T13:17:51;16.70;32.70
19389;DHT22;9830;41.876;23.474;2024-03-22T13:20:18;16.90;32.30
19389;DHT22;9830;41.876;23.474;2024-03-22T13:22:44;17.10;32.60
19389;DHT22;9830;41.876;23.474;2024-03-22T13:25:10;16.80;32.50
19389;DHT22;9830;41.876;23.474;2024-03-22T13:27:37;16.90;32.10
19389;DHT22;9830;41.876;23.474;2024-03-22T13:30:06;16.70;33.00
19389;DHT22;9830;41.876;23.474;2024-03-22T13:32:39;16.70;32.90
19389;DHT22;9830;41.876;23.474;2024-03-22T13:35:05;16.30;33.10
19389;DHT22;9830;41.876;23.474;2024-03-22T13:37:31;16.20;34.40
19389;DHT22;9830;41.876;23.474;2024-03-22T13:39:57;16.10;34.10
19389;DHT22;9830;41.876;23.474;2024-03-22T13:42:23;16.10;34.10
19389;DHT22;9830;41.876;23.474;2024-03-22T13:44:48;16.10;34.70
19389;DHT22;9830;41.876;23.474;2024-03-22T13:47:14;16.30;34.00
19389;DHT22;9830;41.876;23.474;2024-03-22T13:49:40;16.10;35.40
19389;DHT22;9830;41.876;23.474;2024-03-22T13:52:08;16.00;34.40
19389;DHT22;9830;41.876;23.474;2024-03-22T13:54:35;15.90;35.30
19389;DHT22;9830;41.876;23.474;2024-03-22T13:57:00;15.60;34.50
19389;DHT22;9830;41.876;23.474;2024-03-22T13:59:27;15.70;35.20
19389;DHT22;9830;41.876;23.474;2024-03-22T14:01:53;15.70;34.60
19389;DHT22;9830;41.876;23.474;2024-03-22T14:04:19;15.50;35.60
19389;DHT22;9830;41.876;23.474;2024-03-22T14:06:45;15.50;36.30
19389;DHT22;9830;41.876;23.474;2024-03-22T14:09:11;15.40;36.30
19389;DHT22;9830;41.876;23.474;2024-03-22T14:11:39;15.40;36.30
19389;DHT22;9830;41.876;23.474;2024-03-22T14:14:05;15.30;35.60
19389;DHT22;9830;41.876;23.474;2024-03-22T14:16:32;15.50;35.30
19389;DHT22;9830;41.876;23.474;2024-03-22T14:18:58;15.30;36.00
19389;DHT22;9830;41.876;23.474;2024-03-22T14:21:24;15.10;34.50
19389;DHT22;9830;41.876;23.474;2024-03-22T14:23:50;15.00;35.90
19389;DHT22;9830;41.876;23.474;2024-03-22T14:26:18;14.90;35.80
19389;DHT22;9830;41.876;23.474;2024-03-22T14:28:45;14.80;37.10
19389;DHT22;9830;41.876;23.474;2024-03-22T14:31:12;14.70;37.60
19389;DHT22;9830;41.876;23.474;2024-03-22T14:33:39;14.60;37.10
19389;DHT22;9830;41.876;23.474;2024-03-22T14:36:06;14.60;36.40
19389;DHT22;9830;41.876;23.474;2024-03-22T14:38:33;14.60;36.60
19389;DHT22;9830;41.876;23.474;2024-03-22T14:40:59;14.50;37.60
19389;DHT22;9830;41.876;23.474;2024-03-22T14:43:25;14.30;37.50
19389;DHT22;9830;41.876;23.474;2024-03-22T14:45:52;14.00;38.00
19389;DHT22;9830;41.876;23.474;2024-03-22T14:48:23;14.00;37.10
19389;DHT22;9830;41.876;23.474;2024-03-22T14:50:50;13.90;37.80
19389;DHT22;9830;41.876;23.474;2024-03-22T14:53:20;14.00;38.00
19389;DHT22;9830;41.876;23.474;2024-03-22T14:55:57;13.90;38.80
19389;DHT22;9830;41.876;23.474;2024-03-22T14:58:33;13.80;38.30
19389;DHT22;9830;41.876;23.474;2024-03-22T15:01:03;13.80;38.50
19389;DHT22;9830;41.876;23.474;2024-03-22T15:03:30;13.70;38.40
19389;DHT22;9830;41.876;23.474;2024-03-22T15:05:57;13.50;39.20
19389;DHT22;9830;41.876;23.474;2024-03-22T15:08:25;13.50;38.80
19389;DHT22;9830;41.876;23.474;2024-03-22T15:10:51;13.50;37.90
19389;DHT22;9830;41.876;23.474;2024-03-22T15:13:18;13.60;38.60
19389;DHT22;9830;41.876;23.474;2024-03-22T15:15:52;13.60;40.20
19389;DHT22;9830;41.876;23.474;2024-03-22T15:18:18;13.60;39.00
19389;DHT22;9830;41.876;23.474;2024-03-22T15:20:44;13.70;39.20
19389;DHT22;9830;41.876;23.474;2024-03-22T15:23:10;13.70;38.30
19389;DHT22;9830;41.876;23.474;2024-03-22T15:25:35;13.90;38.20
19389;DHT22;9830;41.876;23.474;2024-03-22T15:28:01;13.80;38.10